• Join FlightAware (Why Join?)
  • Login
  • US Flag 
03:05AM EDT


 

Airport Tracker/Info


-or-


 

Live Flight TrackerFlight Track Log ✈ SWA34 ✈ 06-May-2013 ✈ KORF - KATL

Flight Track Log - Related Links

Times and Time Zones

All times are in EDT time to prevent confusion due to time zone crossing. See the SWA34 flight status page for this flight to view local times or setup timezone preferences in your user account.

Time Position Orientation Groundspeed Altitude Reporting Facility
EDT Latitude Longitude Course Direction KTS MPH feet Rate Location/Type
10:35AM 36.9742 -76.2419 338° Northwest 264 304 4,500  Level Washington Center
10:36AM 36.9819 -76.3408 276° West 277 319 7,300 3,000 Climbing Washington Center
10:37AM 36.9522 -76.4314 248° West 277 319 10,600 2,400 Climbing Washington Center
10:38AM 36.9097 -76.5347 243° Southwest 301 346 12,200 2,220 Climbing Washington Center
10:40AM 36.8334 -76.6347 226° Southwest  Level FlightAware Approximate
10:41AM 36.7708 -76.8728 242° Southwest 369 425 19,500  Level Washington Center
10:43AM 36.7246 -76.9981 244° Southwest  Level Estimated
10:44AM 36.6100 -77.2375 233° Southwest 406 467 24,700  Level Washington Center
10:46AM 36.5624 -77.3661 242° Southwest  Level Estimated
10:46AM 36.4917 -77.4858 242° Southwest 418 481 26,000  Level Washington Center
10:47AM 36.5573 -77.3867 242° Southwest  Level Estimated
10:48AM 36.4316 -77.6037 238° Southwest  Level FlightAware Approximate
10:49AM 36.3161 -77.8606 213° Southwest 418 481 29,900  Level Washington Center
10:50AM 36.4443 -77.7466 233° Southwest  Level Estimated
10:51AM 36.1500 -78.0356 220° Southwest 398 458 32,600  Level Washington Center
10:53AM 36.0575 -78.1105 213° Southwest  Level FlightAware Approximate
10:54AM 35.8842 -78.2658 215° Southwest 393 452 36,000  Level Washington Center
10:55AM 35.9744 -78.1772 213° Southwest  Level FlightAware Approximate
10:55AM 35.7969 -78.3450 216° Southwest 393 452 36,000  Level Washington Center
10:56AM 35.7094 -78.4186 214° Southwest 388 447 36,000  Level Washington Center
10:57AM 35.6222 -78.4922 214° Southwest 388 447 36,000  Level Washington Center
10:58AM 35.5328 -78.5681 215° Southwest 393 452 36,000  Level Washington Center
10:59AM 35.4539 -78.6339 214° Southwest 387 445 36,000  Level Washington Center
11:00AM 35.5101 -78.5723 215° Southwest  Level FlightAware Approximate
11:01AM 35.3611 -78.7112 214° Southwest  Level FlightAware Approximate
11:01AM 35.2789 -78.7850 214° Southwest 392 451 36,000  Level Washington Center
11:03AM 35.1869 -78.8601 214° Southwest  Level FlightAware Approximate
11:03AM 35.1081 -78.9281 214° Southwest 387 445 36,000  Level Washington Center
11:05AM 35.0129 -79.0040 213° Southwest  Level FlightAware Approximate
11:06AM 34.8364 -79.1519 212° Southwest 392 451 36,000  Level Jacksonville Center
11:08AM 34.7454 -79.2283 215° Southwest  Level FlightAware Approximate
11:08AM 34.6636 -79.2983 215° Southwest 387 445 36,000  Level Jacksonville Center
11:09AM 34.6092 -79.3736 229° Southwest 387 445 36,000  Level Jacksonville Center
11:10AM 34.5500 -79.4919 239° Southwest 382 440 36,000  Level Jacksonville Center
11:11AM 34.5008 -79.6072 243° Southwest 387 445 36,000  Level Jacksonville Center
11:12AM 34.4656 -79.4597 212° Southwest  Level FlightAware Approximate
11:12AM 34.4583 -79.7422 249° West 387 445 36,000  Level Jacksonville Center
11:13AM 34.4133 -79.8597 245° Southwest 387 445 36,000  Level Jacksonville Center
11:14AM 34.3681 -79.9769 245° Southwest 387 445 36,000  Level Jacksonville Center
11:16AM 34.3119 -80.1011 241° Southwest  Level FlightAware Approximate
11:16AM 34.2772 -80.2036 241° Southwest 395 455 36,000  Level Jacksonville Center
11:18AM 34.2148 -80.3232 238° Southwest  Level FlightAware Approximate
11:18AM 34.1819 -80.4453 238° Southwest 395 455 36,000  Level Jacksonville Center
11:19AM 34.1322 -80.5669 244° Southwest 401 461 36,000  Level Jacksonville Center
11:21AM 34.0344 -80.8203 245° Southwest 406 467 36,000  Level Jacksonville Center
11:23AM 33.9817 -80.9462 243° Southwest  Level FlightAware Approximate
11:24AM 33.8833 -81.1864 243° Southwest 394 453 36,000  Level Jacksonville Center
11:27AM 33.8738 -81.3368 266° West  Level Estimated
11:27AM 33.7475 -81.5156 266° West 390 449 36,000  Level Atlanta Center
11:29AM 33.7435 -81.6661 268° West  Level Estimated
11:29AM 33.6497 -81.7506 268° West 390 449 36,000  Level Atlanta Center
11:30AM 33.6627 -81.6982 243° Southwest  Level FlightAware Approximate
11:30AM 33.6122 -81.8736 250° West 390 449 36,000  Level Atlanta Center
11:31AM 33.5750 -82.0017 251° West 395 455 35,300 -900 Descending Atlanta Center
11:32AM 33.5350 -82.1247 249° West 401 461 34,300 -480 Descending Atlanta Center
11:34AM 33.5335 -82.2725 269° West  Level FlightAware Approximate
11:34AM 33.4886 -82.3775 269° West 396 456 34,000  Level Atlanta Center
11:35AM 33.4675 -82.5072 259° West 396 456 34,000  Level Atlanta Center
11:36AM 33.4419 -82.6397 257° West 396 456 34,000 -960 Level Atlanta Center
11:37AM 33.4161 -82.7769 257° West 396 456 32,100 -2,220 Descending Atlanta Center
11:38AM 33.3925 -82.9017 257° West 390 449 29,600 -2,460 Descending Atlanta Center
11:39AM 33.3706 -83.0189 257° West 380 437 27,200 -2,220 Descending Atlanta Center
11:41AM 33.3460 -83.1619 255° West  Level FlightAware Approximate
11:41AM 33.3283 -83.2358 255° West 338 389 23,000  Level Atlanta Center
11:42AM 33.3081 -83.3353 256° West 311 358 21,000 -2,040 Descending Atlanta Center
11:44AM 33.2768 -83.4778 255° West  Level FlightAware Approximate
11:44AM 33.2714 -83.5344 255° West 311 358 17,000  Level Atlanta Center
11:46AM 33.2357 -83.6754 253° West  Level FlightAware Approximate
11:47AM 33.2333 -83.7500 253° West 277 319 12,600  Level Atlanta TRACON
11:48AM 33.2333 -83.8333 270° West 275 316 11,700 -1,440 Descending Atlanta TRACON
11:49AM 33.2833 -83.9167 306° West 283 326 9,800 -1,680 Descending Atlanta TRACON
11:49AM 33.3100 -83.9469 317° Northwest 263 303 9,100 -1,800 Descending Atlanta Center
11:50AM 33.3683 -83.9992 323° Northwest 269 310 7,100 -2,040 Descending Atlanta Center
11:51AM 33.4372 -84.0364 336° Northwest 269 310 5,100 -1,800 Descending Atlanta Center
11:52AM 33.5061 -84.0761 334° Northwest 269 310 3,500 -1,080 Descending Atlanta Center
11:53AM 33.5814 -84.1136 337° Northwest 269 310 3,000 -300 Descending Atlanta Center
11:54AM 33.6250 -84.1661 315° West 230 265 3,000 -180 Level Atlanta Center
11:56AM 33.6314 -84.3079 270° West  Level Estimated
11:57AM 33.6333 -84.3333 270° West 170 196 2,500  Level Atlanta TRACON
11:59AM 33.6367 -84.4279 239° Southwest  Level Estimated
12:06PM 33.6367 -84.4279 64° Northeast  Level Estimated
12:07PM 33.6367 -84.4279 64° Northeast  Level Estimated
12:08PM 33.6367 -84.4279 64° Northeast  Level Estimated
12:09PM 33.6367 -84.4279 64° Northeast  Level Estimated